Noonamah, Australia
Current Conditions -  °F | °C
As of 11:00 AM on Friday 21 Nov 2014 (Local Time) from YPDN Reporting Station
Few Clouds Few Clouds  
Wind Chill: 90°   Ceiling: Unl
Heat Index: 98°   Visibility: 6mi
Dew Point: 73°   Wind: 12mph
Humidity: 59%   Direction: 290°WNW
Pressure: 29.85"   Gusts: NA
Location:  12.66°S, 131.08°E
Report Text: YPDN 210200Z 29010KT 9999 FEW031 32/23 Q1011
Loading
Personal Weather Stations






























Interactive Weather Map New forecast layout! Learn more

10-Day Weather Forecast

Advertisements
Track Severe Weather on mobile